Santa Ana, CA (92711)

6:03 AM PDT on September 19, 2014 (GMT -0700)
North Tustin | Change Station
CLOSE
Current Station
Personal Weather Station
Location: North Tustin, CA
Elevation: 157 ft
Nearby Weather Stations

Elev 157 ft 33.75 °N, 117.80 °W | Updated 3 minutes ago

Overcast
Overcast
69.4 °F
Feels Like 69.4 °F
N
0.0
Wind Variable Wind from WSW
Gusts 0.0 mph

Today
High -- | Low -- °F
--% Chance of Precip.
Yesterday
High -- | Low -- °F
Precip. -- in
6:37 AM 6:51 PM
Waning Crescent, 19% visible
Pressure 29.87 in
Visibility 10.0 miles
Clouds Scattered Clouds 2100 ft
Overcast 3000 ft
Dew Point 64 °F
Humidity 84%
Rainfall 0.00 in
Snow Depth 0 in , 0 in , 0 in
UV 0 out of 12
Pollen 6.90 out of 12
Ozone Good
PM2.5 Good
Flu Activity Not available.
SPECI KSNA 191246Z AUTO 00000KT 10SM SCT021 OVC030 22/17 A2987 RMK AO2 TSNO

More Conditions Fewer Conditions

Pressure 29.87 in
Visibility 10.0 miles
Clouds Scattered Clouds 2100 ft
Overcast 3000 ft
Dew Point 64 °F
Humidity 84%
Rainfall 0.00 in
Snow Depth 0 in , 0 in , 0 in
UV 0 out of 12
Pollen 6.90 out of 12
Ozone Good
PM2.5 Good
Flu Activity Not available.
SPECI KSNA 191246Z AUTO 00000KT 10SM SCT021 OVC030 22/17 A2987 RMK AO2 TSNO

More Conditions Fewer Conditions

10-Day Weather Forecast

Almanac

Astronomy

Sep. 19, 2014 Rise Set
Actual Time 6:37 AM PDT 6:51 PM PDT
Civil Twilight 6:12 AM PDT 7:16 PM PDT
Nautical Twilight 5:43 AM PDT 7:45 PM PDT
Astronomical Twilight 5:13 AM PDT 8:15 PM PDT
Moon 2:36 AM PDT 4:15 PM PDT
Length of Visible Light 13h 04m
Length of Day
12h 14m
Tomorrow will be 2m 4s shorter.
Waning Crescent, 19% of the Moon is Illuminated
Today
Waning Crescent
Sep 24
New
Oct 1
First Quarter
Oct 8
Full
Oct 15
Last Quarter

Today's Extremes

State Highs State Lows

Community

WunderPhotos

Upload Photos

1,754,606 photos uploaded!

WunderBlogs® & News

Nearby

Air Quality

  Air Quality AQ Index Pollutant
Yesterday Good
PM10
Yesterday Good
OZONE
Current Good
PM2.5
Current Good
OZONE
Friday Good
PM10
Friday Good
OZONE
Friday Good
CO
Friday Good
NO2

Snow Depth

Station Depth Elevation
Ebbetts Pass 0 in 8700 ft
Monitor Pass 0 in 8350 ft
Sonora Pass 0 in 8800 ft
Tahoe City Cross 0 in 6750 ft
Crowder Flat 0 in 5100 ft

Earthquake Activity

City Distance Mag. Time & Date
Aguanga, California 62 miles 2.5 1:38 AM PDT
2014-09-19
Minimum magnitude displayed is 2.5.

Coastal Water Temperatures

Place Temperature
Santa Monica Pier 66.9 °F
Los Angeles, CA 66.9 °F
La Jolla, CA 71.1 °F

Nearby Weather Stations